sensor_id;sensor_type;location;lat;lon;timestamp;pressure;altitude;pressure_sealevel;temperature;humidity
46366;BME280;72328;49.570;8.722;2023-08-31T00:03:42;99045.00;;;19.50;54.31
46366;BME280;72328;49.570;8.722;2023-08-31T00:07:45;99057.88;;;19.51;54.34
46366;BME280;72328;49.570;8.722;2023-08-31T00:11:46;99058.88;;;19.50;54.63
46366;BME280;72328;49.570;8.722;2023-08-31T00:15:47;99058.22;;;19.48;54.47
46366;BME280;72328;49.570;8.722;2023-08-31T00:19:48;99048.41;;;19.50;54.60
46366;BME280;72328;49.570;8.722;2023-08-31T00:23:49;99055.25;;;19.51;54.64
46366;BME280;72328;49.570;8.722;2023-08-31T00:27:50;99057.22;;;19.49;54.61
46366;BME280;72328;49.570;8.722;2023-08-31T00:31:52;99055.25;;;19.51;54.70
46366;BME280;72328;49.570;8.722;2023-08-31T00:35:53;99052.81;;;19.50;54.80
46366;BME280;72328;49.570;8.722;2023-08-31T00:39:56;99055.78;;;19.47;54.93
46366;BME280;72328;49.570;8.722;2023-08-31T00:43:57;99055.97;;;19.45;54.68
46366;BME280;72328;49.570;8.722;2023-08-31T00:47:59;99064.97;;;19.43;54.72
46366;BME280;72328;49.570;8.722;2023-08-31T00:51:59;99067.75;;;19.41;54.89
46366;BME280;72328;49.570;8.722;2023-08-31T00:56:00;99070.69;;;19.38;54.77
46366;BME280;72328;49.570;8.722;2023-08-31T01:00:04;99067.44;;;19.36;54.80
46366;BME280;72328;49.570;8.722;2023-08-31T01:04:18;99076.06;;;19.37;55.13
46366;BME280;72328;49.570;8.722;2023-08-31T01:08:33;99078.22;;;19.33;54.79
46366;BME280;72328;49.570;8.722;2023-08-31T01:12:49;99071.75;;;19.29;55.00
46366;BME280;72328;49.570;8.722;2023-08-31T01:16:53;99076.31;;;19.27;55.13
46366;BME280;72328;49.570;8.722;2023-08-31T01:25:04;99072.75;;;19.20;55.06
46366;BME280;72328;49.570;8.722;2023-08-31T01:29:05;99077.16;;;19.20;54.92
46366;BME280;72328;49.570;8.722;2023-08-31T01:33:06;99078.16;;;19.19;55.23
46366;BME280;72328;49.570;8.722;2023-08-31T01:37:13;99076.53;;;19.18;55.70
46366;BME280;72328;49.570;8.722;2023-08-31T01:41:19;99087.13;;;19.16;55.36
46366;BME280;72328;49.570;8.722;2023-08-31T01:45:24;99086.31;;;19.16;55.54
46366;BME280;72328;49.570;8.722;2023-08-31T01:49:26;99106.03;;;19.18;55.46
46366;BME280;72328;49.570;8.722;2023-08-31T01:53:27;99107.19;;;19.16;55.62
46366;BME280;72328;49.570;8.722;2023-08-31T01:57:27;99112.41;;;19.16;55.57
46366;BME280;72328;49.570;8.722;2023-08-31T02:01:28;99103.94;;;19.14;55.70
46366;BME280;72328;49.570;8.722;2023-08-31T02:05:29;99113.22;;;19.16;55.43
46366;BME280;72328;49.570;8.722;2023-08-31T02:09:30;99095.94;;;19.15;55.70
46366;BME280;72328;49.570;8.722;2023-08-31T02:13:31;99095.13;;;19.15;55.51
46366;BME280;72328;49.570;8.722;2023-08-31T02:17:33;99106.41;;;19.15;55.57
46366;BME280;72328;49.570;8.722;2023-08-31T02:21:34;99105.41;;;19.16;55.59
46366;BME280;72328;49.570;8.722;2023-08-31T02:25:35;99103.16;;;19.13;55.80
46366;BME280;72328;49.570;8.722;2023-08-31T02:29:35;99112.78;;;19.13;55.73
46366;BME280;72328;49.570;8.722;2023-08-31T02:33:36;99115.38;;;19.13;55.98
46366;BME280;72328;49.570;8.722;2023-08-31T02:37:37;99118.97;;;19.12;55.94
46366;BME280;72328;49.570;8.722;2023-08-31T02:41:38;99111.31;;;19.10;55.99
46366;BME280;72328;49.570;8.722;2023-08-31T02:45:39;99109.53;;;19.11;56.06
46366;BME280;72328;49.570;8.722;2023-08-31T02:49:39;99115.91;;;19.08;55.89
46366;BME280;72328;49.570;8.722;2023-08-31T02:53:40;99117.06;;;19.06;55.96
46366;BME280;72328;49.570;8.722;2023-08-31T02:57:41;99122.59;;;19.03;56.23
46366;BME280;72328;49.570;8.722;2023-08-31T03:01:42;99119.22;;;18.94;56.35
46366;BME280;72328;49.570;8.722;2023-08-31T03:05:47;99116.84;;;18.85;56.17
46366;BME280;72328;49.570;8.722;2023-08-31T03:09:50;99124.69;;;18.77;56.72
46366;BME280;72328;49.570;8.722;2023-08-31T03:13:51;99124.53;;;18.70;56.52
46366;BME280;72328;49.570;8.722;2023-08-31T03:17:52;99134.53;;;18.59;56.81
46366;BME280;72328;49.570;8.722;2023-08-31T03:21:53;99143.66;;;18.55;56.98
46366;BME280;72328;49.570;8.722;2023-08-31T03:25:53;99133.91;;;18.49;56.87
46366;BME280;72328;49.570;8.722;2023-08-31T03:29:54;99145.66;;;18.45;57.00
46366;BME280;72328;49.570;8.722;2023-08-31T03:33:55;99150.88;;;18.45;56.92
46366;BME280;72328;49.570;8.722;2023-08-31T03:37:56;99151.03;;;18.43;57.06
46366;BME280;72328;49.570;8.722;2023-08-31T03:41:57;99155.91;;;18.46;57.06
46366;BME280;72328;49.570;8.722;2023-08-31T03:45:58;99161.44;;;18.51;56.93
46366;BME280;72328;49.570;8.722;2023-08-31T03:49:59;99168.91;;;18.54;56.83
46366;BME280;72328;49.570;8.722;2023-08-31T03:54:00;99168.91;;;18.54;56.78
46366;BME280;72328;49.570;8.722;2023-08-31T03:58:01;99160.47;;;18.52;56.72
46366;BME280;72328;49.570;8.722;2023-08-31T04:02:02;99155.91;;;18.46;56.79
46366;BME280;72328;49.570;8.722;2023-08-31T04:06:04;99166.97;;;18.48;56.79
46366;BME280;72328;49.570;8.722;2023-08-31T04:10:06;99166.81;;;18.50;56.71
46366;BME280;72328;49.570;8.722;2023-08-31T04:14:07;99174.47;;;18.51;56.70
46366;BME280;72328;49.570;8.722;2023-08-31T04:18:08;99171.72;;;18.53;56.80
46366;BME280;72328;49.570;8.722;2023-08-31T04:22:08;99179.69;;;18.51;56.66
46366;BME280;72328;49.570;8.722;2023-08-31T04:26:13;99188.66;;;18.49;56.88
46366;BME280;72328;49.570;8.722;2023-08-31T04:30:14;99200.72;;;18.50;57.10
46366;BME280;72328;49.570;8.722;2023-08-31T04:34:14;99197.28;;;18.49;56.82
46366;BME280;72328;49.570;8.722;2023-08-31T04:38:16;99197.28;;;18.49;56.98
46366;BME280;72328;49.570;8.722;2023-08-31T04:42:16;99199.41;;;18.46;56.88
46366;BME280;72328;49.570;8.722;2023-08-31T04:46:17;99202.38;;;18.43;56.99
46366;BME280;72328;49.570;8.722;2023-08-31T04:50:18;99204.66;;;18.38;57.22
46366;BME280;72328;49.570;8.722;2023-08-31T04:54:19;99201.22;;;18.37;57.25
46366;BME280;72328;49.570;8.722;2023-08-31T04:58:19;99203.50;;;18.40;57.14
46366;BME280;72328;49.570;8.722;2023-08-31T05:02:20;99205.94;;;18.42;57.06
46366;BME280;72328;49.570;8.722;2023-08-31T05:06:21;99210.00;;;18.44;57.25
46366;BME280;72328;49.570;8.722;2023-08-31T05:10:22;99217.34;;;18.49;57.07
46366;BME280;72328;49.570;8.722;2023-08-31T05:14:23;99223.34;;;18.49;57.04
46366;BME280;72328;49.570;8.722;2023-08-31T05:18:24;99223.88;;;18.53;57.35
46366;BME280;72328;49.570;8.722;2023-08-31T05:22:25;99225.34;;;18.55;57.39
46366;BME280;72328;49.570;8.722;2023-08-31T05:26:25;99224.00;;;18.59;57.45
46366;BME280;72328;49.570;8.722;2023-08-31T05:30:26;99246.16;;;18.63;57.40
46366;BME280;72328;49.570;8.722;2023-08-31T05:34:27;99246.81;;;18.65;57.68
46366;BME280;72328;49.570;8.722;2023-08-31T05:38:28;99255.13;;;18.69;57.56
46366;BME280;72328;49.570;8.722;2023-08-31T05:42:29;99253.47;;;18.76;57.76
46366;BME280;72328;49.570;8.722;2023-08-31T05:46:29;99255.25;;;18.83;58.15
46366;BME280;72328;49.570;8.722;2023-08-31T05:50:30;99255.72;;;18.95;58.43
46366;BME280;72328;49.570;8.722;2023-08-31T05:54:32;99258.78;;;19.06;58.40
46366;BME280;72328;49.570;8.722;2023-08-31T05:58:36;99261.38;;;19.14;58.50
46366;BME280;72328;49.570;8.722;2023-08-31T06:02:37;99269.66;;;19.18;58.56
46366;BME280;72328;49.570;8.722;2023-08-31T06:06:38;99270.81;;;19.23;58.48
46366;BME280;72328;49.570;8.722;2023-08-31T06:10:39;99280.41;;;19.31;58.50
46366;BME280;72328;49.570;8.722;2023-08-31T06:14:39;99265.88;;;19.36;58.86
46366;BME280;72328;49.570;8.722;2023-08-31T06:18:40;99280.19;;;19.48;58.88
46366;BME280;72328;49.570;8.722;2023-08-31T06:22:41;99271.63;;;19.62;59.38
46366;BME280;72328;49.570;8.722;2023-08-31T06:26:42;99268.28;;;19.76;59.55
46366;BME280;72328;49.570;8.722;2023-08-31T06:30:43;99285.50;;;19.93;59.79
46366;BME280;72328;49.570;8.722;2023-08-31T06:34:48;99297.78;;;20.15;60.03
46366;BME280;72328;49.570;8.722;2023-08-31T06:38:48;99306.81;;;20.35;60.17
46366;BME280;72328;49.570;8.722;2023-08-31T06:42:49;99306.72;;;20.66;60.24
46366;BME280;72328;49.570;8.722;2023-08-31T06:46:50;99301.94;;;21.06;60.62
46366;BME280;72328;49.570;8.722;2023-08-31T06:50:51;99308.78;;;21.51;60.75
46366;BME280;72328;49.570;8.722;2023-08-31T06:54:52;99304.41;;;21.58;59.37
46366;BME280;72328;49.570;8.722;2023-08-31T06:58:56;99303.53;;;21.51;59.56
46366;BME280;72328;49.570;8.722;2023-08-31T07:02:57;99311.31;;;21.59;59.23
46366;BME280;72328;49.570;8.722;2023-08-31T07:06:58;99321.06;;;21.65;58.39
46366;BME280;72328;49.570;8.722;2023-08-31T07:10:59;99321.84;;;21.65;57.79
46366;BME280;72328;49.570;8.722;2023-08-31T07:14:59;99327.47;;;21.62;57.26
46366;BME280;72328;49.570;8.722;2023-08-31T07:19:00;99332.63;;;21.56;56.82
46366;BME280;72328;49.570;8.722;2023-08-31T07:23:01;99335.25;;;21.41;56.48
46366;BME280;72328;49.570;8.722;2023-08-31T07:27:03;99339.97;;;21.31;56.28
46366;BME280;72328;49.570;8.722;2023-08-31T07:31:05;99347.25;;;21.21;56.14
46366;BME280;72328;49.570;8.722;2023-08-31T07:35:07;99355.75;;;21.09;56.13
46366;BME280;72328;49.570;8.722;2023-08-31T07:39:08;99345.34;;;21.01;56.09
46366;BME280;72328;49.570;8.722;2023-08-31T07:43:09;99348.88;;;20.93;55.75
46366;BME280;72328;49.570;8.722;2023-08-31T07:47:10;99349.50;;;20.87;56.57
46366;BME280;72328;49.570;8.722;2023-08-31T07:51:11;99361.94;;;20.93;57.48
46366;BME280;72328;49.570;8.722;2023-08-31T07:55:11;99356.28;;;21.04;58.18
46366;BME280;72328;49.570;8.722;2023-08-31T07:59:12;99363.25;;;21.12;58.52
46366;BME280;72328;49.570;8.722;2023-08-31T08:03:13;99375.34;;;21.27;58.47
46366;BME280;72328;49.570;8.722;2023-08-31T08:07:14;99380.41;;;21.43;58.14
46366;BME280;72328;49.570;8.722;2023-08-31T08:11:15;99385.06;;;21.70;58.72
46366;BME280;72328;49.570;8.722;2023-08-31T08:15:15;99384.78;;;21.94;58.62
46366;BME280;72328;49.570;8.722;2023-08-31T08:19:22;99397.31;;;21.99;57.82
46366;BME280;72328;49.570;8.722;2023-08-31T08:23:23;99388.66;;;21.98;57.26
46366;BME280;72328;49.570;8.722;2023-08-31T08:27:24;99396.31;;;22.00;56.42
46366;BME280;72328;49.570;8.722;2023-08-31T08:31:25;99401.50;;;21.93;56.04
46366;BME280;72328;49.570;8.722;2023-08-31T08:35:26;99399.22;;;21.90;55.70
46366;BME280;72328;49.570;8.722;2023-08-31T08:39:27;99405.03;;;21.86;55.81
46366;BME280;72328;49.570;8.722;2023-08-31T08:43:28;99397.63;;;21.75;55.31
46366;BME280;72328;49.570;8.722;2023-08-31T08:47:29;99402.78;;;21.68;55.50
46366;BME280;72328;49.570;8.722;2023-08-31T08:51:31;99406.94;;;21.77;56.25
46366;BME280;72328;49.570;8.722;2023-08-31T08:55:32;99406.81;;;21.85;56.63
46366;BME280;72328;49.570;8.722;2023-08-31T08:59:33;99409.28;;;21.87;56.46
46366;BME280;72328;49.570;8.722;2023-08-31T09:03:35;99415.22;;;21.95;56.33
46366;BME280;72328;49.570;8.722;2023-08-31T09:07:36;99410.59;;;21.97;55.56
46366;BME280;72328;49.570;8.722;2023-08-31T09:11:37;99411.31;;;22.06;56.64
46366;BME280;72328;49.570;8.722;2023-08-31T09:15:46;99423.69;;;22.26;57.38
46366;BME280;72328;49.570;8.722;2023-08-31T09:20:02;99415.88;;;22.68;59.22
46366;BME280;72328;49.570;8.722;2023-08-31T09:24:07;99410.59;;;23.38;60.82
46366;BME280;72328;49.570;8.722;2023-08-31T09:28:08;99409.66;;;24.20;61.40
46366;BME280;72328;49.570;8.722;2023-08-31T09:32:09;99407.38;;;25.09;59.54
46366;BME280;72328;49.570;8.722;2023-08-31T09:36:10;99399.38;;;25.81;58.49
46366;BME280;72328;49.570;8.722;2023-08-31T09:40:14;99407.38;;;26.18;56.62
46366;BME280;72328;49.570;8.722;2023-08-31T09:44:18;99407.19;;;26.20;55.18
46366;BME280;72328;49.570;8.722;2023-08-31T09:48:20;99399.91;;;26.15;53.91
46366;BME280;72328;49.570;8.722;2023-08-31T09:52:23;99404.00;;;25.98;53.27
46366;BME280;72328;49.570;8.722;2023-08-31T09:56:26;99400.38;;;25.86;53.05
46366;BME280;72328;49.570;8.722;2023-08-31T10:00:30;99403.03;;;25.80;52.23
46366;BME280;72328;49.570;8.722;2023-08-31T10:04:32;99400.06;;;25.63;52.08
46366;BME280;72328;49.570;8.722;2023-08-31T10:08:33;99402.66;;;25.70;52.06
46366;BME280;72328;49.570;8.722;2023-08-31T10:12:35;99406.91;;;25.77;52.13
46366;BME280;72328;49.570;8.722;2023-08-31T10:16:39;99404.63;;;25.87;51.27
46366;BME280;72328;49.570;8.722;2023-08-31T10:20:43;99406.09;;;25.77;50.95
46366;BME280;72328;49.570;8.722;2023-08-31T10:25:04;99416.28;;;25.54;49.79
46366;BME280;72328;49.570;8.722;2023-08-31T10:29:06;99397.56;;;25.75;50.45
46366;BME280;72328;49.570;8.722;2023-08-31T10:33:26;99393.66;;;26.41;50.23
46366;BME280;72328;49.570;8.722;2023-08-31T10:37:27;99394.38;;;26.17;50.03
46366;BME280;72328;49.570;8.722;2023-08-31T10:41:37;99396.53;;;25.95;49.81
46366;BME280;72328;49.570;8.722;2023-08-31T10:45:45;99402.97;;;26.06;48.86
46366;BME280;72328;49.570;8.722;2023-08-31T10:49:50;99397.22;;;26.22;49.23
46366;BME280;72328;49.570;8.722;2023-08-31T10:58:10;99386.78;;;25.96;48.67
46366;BME280;72328;49.570;8.722;2023-08-31T11:02:30;99383.38;;;25.76;48.55
46366;BME280;72328;49.570;8.722;2023-08-31T11:06:32;99382.00;;;25.60;48.15
46366;BME280;72328;49.570;8.722;2023-08-31T11:10:33;99389.72;;;25.49;47.62
46366;BME280;72328;49.570;8.722;2023-08-31T11:14:33;99383.06;;;25.33;47.39
46366;BME280;72328;49.570;8.722;2023-08-31T11:18:37;99386.31;;;25.16;47.19
46366;BME280;72328;49.570;8.722;2023-08-31T11:22:49;99381.25;;;24.95;46.95
46366;BME280;72328;49.570;8.722;2023-08-31T11:26:51;99383.28;;;24.86;47.29
46366;BME280;72328;49.570;8.722;2023-08-31T11:30:52;99375.16;;;24.81;47.19
46366;BME280;72328;49.570;8.722;2023-08-31T11:34:53;99379.03;;;25.11;47.21
46366;BME280;72328;49.570;8.722;2023-08-31T11:38:54;99371.88;;;25.51;46.56
46366;BME280;72328;49.570;8.722;2023-08-31T11:42:58;99364.78;;;26.08;46.94
46366;BME280;72328;49.570;8.722;2023-08-31T11:47:01;99366.53;;;26.89;46.88
46366;BME280;72328;49.570;8.722;2023-08-31T11:51:01;99377.63;;;26.98;45.45
46366;BME280;72328;49.570;8.722;2023-08-31T11:55:10;99366.13;;;27.10;45.82
46366;BME280;72328;49.570;8.722;2023-08-31T11:59:11;99372.81;;;26.88;45.63
46366;BME280;72328;49.570;8.722;2023-08-31T12:03:12;99365.25;;;26.67;45.42
46366;BME280;72328;49.570;8.722;2023-08-31T12:07:18;99375.06;;;26.54;45.27
46366;BME280;72328;49.570;8.722;2023-08-31T12:11:20;99369.88;;;26.41;45.11
46366;BME280;72328;49.570;8.722;2023-08-31T12:15:21;99373.41;;;26.28;44.75
46366;BME280;72328;49.570;8.722;2023-08-31T12:19:27;99368.44;;;26.14;44.17
46366;BME280;72328;49.570;8.722;2023-08-31T12:23:29;99383.72;;;25.99;44.65
46366;BME280;72328;49.570;8.722;2023-08-31T12:27:29;99379.91;;;25.82;43.83
46366;BME280;72328;49.570;8.722;2023-08-31T12:31:31;99380.31;;;25.72;44.15
46366;BME280;72328;49.570;8.722;2023-08-31T12:35:35;99384.44;;;25.62;44.13
46366;BME280;72328;49.570;8.722;2023-08-31T12:39:36;99388.09;;;25.61;44.31
46366;BME280;72328;49.570;8.722;2023-08-31T12:43:37;99390.09;;;25.59;44.86
46366;BME280;72328;49.570;8.722;2023-08-31T12:47:39;99385.66;;;25.59;44.96
46366;BME280;72328;49.570;8.722;2023-08-31T12:51:39;99387.28;;;25.54;44.57
46366;BME280;72328;49.570;8.722;2023-08-31T12:55:40;99390.34;;;25.51;44.87
46366;BME280;72328;49.570;8.722;2023-08-31T12:59:41;99393.78;;;25.58;45.15
46366;BME280;72328;49.570;8.722;2023-08-31T13:03:42;99389.50;;;25.63;44.78
46366;BME280;72328;49.570;8.722;2023-08-31T13:07:43;99396.59;;;25.63;44.66
46366;BME280;72328;49.570;8.722;2023-08-31T13:11:44;99388.47;;;25.64;44.81
46366;BME280;72328;49.570;8.722;2023-08-31T13:15:46;99390.28;;;25.70;44.50
46366;BME280;72328;49.570;8.722;2023-08-31T13:19:47;99378.91;;;25.70;44.52
46366;BME280;72328;49.570;8.722;2023-08-31T13:23:48;99373.00;;;25.81;44.92
46366;BME280;72328;49.570;8.722;2023-08-31T13:27:49;99368.72;;;25.93;45.27
46366;BME280;72328;49.570;8.722;2023-08-31T13:31:50;99365.84;;;26.01;44.61
46366;BME280;72328;49.570;8.722;2023-08-31T13:35:50;99363.59;;;26.04;44.69
46366;BME280;72328;49.570;8.722;2023-08-31T13:39:51;99370.91;;;26.02;44.25
46366;BME280;72328;49.570;8.722;2023-08-31T13:43:55;99369.72;;;25.98;44.21
46366;BME280;72328;49.570;8.722;2023-08-31T13:47:57;99361.59;;;25.93;43.93
46366;BME280;72328;49.570;8.722;2023-08-31T13:52:00;99356.56;;;25.92;44.24
46366;BME280;72328;49.570;8.722;2023-08-31T13:56:01;99346.56;;;26.00;44.66
46366;BME280;72328;49.570;8.722;2023-08-31T14:00:03;99340.81;;;26.10;44.46
46366;BME280;72328;49.570;8.722;2023-08-31T14:04:05;99346.06;;;26.16;44.50
46366;BME280;72328;49.570;8.722;2023-08-31T14:08:06;99350.53;;;26.16;44.30
46366;BME280;72328;49.570;8.722;2023-08-31T14:12:07;99345.63;;;26.19;44.53
46366;BME280;72328;49.570;8.722;2023-08-31T14:16:08;99348.44;;;26.24;44.00
46366;BME280;72328;49.570;8.722;2023-08-31T14:20:09;99360.03;;;26.23;44.25
46366;BME280;72328;49.570;8.722;2023-08-31T14:24:11;99350.16;;;26.12;43.69
46366;BME280;72328;49.570;8.722;2023-08-31T14:28:12;99353.88;;;25.98;44.01
46366;BME280;72328;49.570;8.722;2023-08-31T14:32:13;99345.78;;;25.93;43.52
46366;BME280;72328;49.570;8.722;2023-08-31T14:36:16;99351.88;;;25.81;43.69
46366;BME280;72328;49.570;8.722;2023-08-31T14:40:17;99346.59;;;25.81;43.98
46366;BME280;72328;49.570;8.722;2023-08-31T14:44:17;99357.78;;;25.83;44.15
46366;BME280;72328;49.570;8.722;2023-08-31T14:48:18;99357.56;;;25.84;43.86
46366;BME280;72328;49.570;8.722;2023-08-31T14:52:19;99365.69;;;25.83;43.96
46366;BME280;72328;49.570;8.722;2023-08-31T14:56:20;99364.47;;;25.85;43.95
46366;BME280;72328;49.570;8.722;2023-08-31T15:00:20;99368.16;;;25.78;43.33
46366;BME280;72328;49.570;8.722;2023-08-31T15:04:21;99363.53;;;25.60;43.42
46366;BME280;72328;49.570;8.722;2023-08-31T15:08:35;99365.59;;;25.52;43.47
46366;BME280;72328;49.570;8.722;2023-08-31T15:12:36;99367.84;;;25.48;43.41
46366;BME280;72328;49.570;8.722;2023-08-31T15:16:37;99361.16;;;25.46;43.69
46366;BME280;72328;49.570;8.722;2023-08-31T15:20:39;99357.09;;;25.37;43.32
46366;BME280;72328;49.570;8.722;2023-08-31T15:24:42;99344.75;;;25.31;43.48
46366;BME280;72328;49.570;8.722;2023-08-31T15:28:43;99365.22;;;25.22;43.60
46366;BME280;72328;49.570;8.722;2023-08-31T15:32:44;99360.78;;;25.03;43.46
46366;BME280;72328;49.570;8.722;2023-08-31T15:36:45;99356.94;;;24.86;43.66
46366;BME280;72328;49.570;8.722;2023-08-31T15:40:46;99359.56;;;24.80;43.89
46366;BME280;72328;49.570;8.722;2023-08-31T15:44:47;99351.06;;;24.84;43.72
46366;BME280;72328;49.570;8.722;2023-08-31T15:48:48;99355.91;;;24.94;43.69
46366;BME280;72328;49.570;8.722;2023-08-31T15:52:50;99361.00;;;24.95;43.91
46366;BME280;72328;49.570;8.722;2023-08-31T15:56:50;99363.00;;;24.93;43.70
46366;BME280;72328;49.570;8.722;2023-08-31T16:00:51;99355.50;;;24.84;43.65
46366;BME280;72328;49.570;8.722;2023-08-31T16:04:55;99351.47;;;24.68;43.76
46366;BME280;72328;49.570;8.722;2023-08-31T16:08:56;99360.34;;;24.54;43.98
46366;BME280;72328;49.570;8.722;2023-08-31T16:12:59;99359.13;;;24.44;43.55
46366;BME280;72328;49.570;8.722;2023-08-31T16:17:00;99360.47;;;24.27;43.75
46366;BME280;72328;49.570;8.722;2023-08-31T16:21:00;99370.94;;;24.07;44.46
46366;BME280;72328;49.570;8.722;2023-08-31T16:25:01;99372.94;;;23.99;44.45
46366;BME280;72328;49.570;8.722;2023-08-31T16:29:04;99373.75;;;23.93;44.53
46366;BME280;72328;49.570;8.722;2023-08-31T16:33:05;99377.69;;;23.82;44.53
46366;BME280;72328;49.570;8.722;2023-08-31T16:37:06;99365.50;;;23.68;44.88
46366;BME280;72328;49.570;8.722;2023-08-31T16:41:07;99368.72;;;23.64;44.62
46366;BME280;72328;49.570;8.722;2023-08-31T16:45:09;99368.94;;;23.62;44.67
46366;BME280;72328;49.570;8.722;2023-08-31T16:49:09;99371.50;;;23.56;44.65
46366;BME280;72328;49.570;8.722;2023-08-31T16:53:10;99377.31;;;23.45;45.19
46366;BME280;72328;49.570;8.722;2023-08-31T16:57:12;99380.75;;;23.45;45.04
46366;BME280;72328;49.570;8.722;2023-08-31T17:01:13;99376.31;;;23.46;44.84
46366;BME280;72328;49.570;8.722;2023-08-31T17:05:14;99390.59;;;23.37;45.06
46366;BME280;72328;49.570;8.722;2023-08-31T17:09:15;99383.44;;;23.24;45.17
46366;BME280;72328;49.570;8.722;2023-08-31T17:13:16;99374.13;;;23.22;45.50
46366;BME280;72328;49.570;8.722;2023-08-31T17:17:17;99386.69;;;23.26;45.47
46366;BME280;72328;49.570;8.722;2023-08-31T17:21:17;99384.88;;;23.27;45.36
46366;BME280;72328;49.570;8.722;2023-08-31T17:25:18;99386.66;;;23.20;45.76
46366;BME280;72328;49.570;8.722;2023-08-31T17:29:20;99399.59;;;23.21;45.82
46366;BME280;72328;49.570;8.722;2023-08-31T17:33:21;99388.44;;;23.19;45.91
46366;BME280;72328;49.570;8.722;2023-08-31T17:37:24;99394.06;;;23.16;46.01
46366;BME280;72328;49.570;8.722;2023-08-31T17:41:26;99396.28;;;23.13;45.75
46366;BME280;72328;49.570;8.722;2023-08-31T17:45:26;99393.22;;;23.09;45.82
46366;BME280;72328;49.570;8.722;2023-08-31T17:49:27;99407.53;;;23.07;45.78
46366;BME280;72328;49.570;8.722;2023-08-31T17:53:28;99414.72;;;22.98;46.08
46366;BME280;72328;49.570;8.722;2023-08-31T17:57:29;99417.31;;;22.92;46.25
46366;BME280;72328;49.570;8.722;2023-08-31T18:01:30;99419.28;;;22.90;46.21
46366;BME280;72328;49.570;8.722;2023-08-31T18:05:31;99428.38;;;22.87;46.19
46366;BME280;72328;49.570;8.722;2023-08-31T18:09:32;99448.16;;;22.83;46.34
46366;BME280;72328;49.570;8.722;2023-08-31T18:13:37;99443.41;;;22.72;46.75
46366;BME280;72328;49.570;8.722;2023-08-31T18:17:38;99456.75;;;22.56;47.12
46366;BME280;72328;49.570;8.722;2023-08-31T18:21:38;99460.47;;;22.47;47.27
46366;BME280;72328;49.570;8.722;2023-08-31T18:25:39;99471.16;;;22.31;47.35
46366;BME280;72328;49.570;8.722;2023-08-31T18:29:44;99471.81;;;22.19;47.73
46366;BME280;72328;49.570;8.722;2023-08-31T18:33:45;99477.13;;;22.11;47.76
46366;BME280;72328;49.570;8.722;2023-08-31T18:37:46;99487.63;;;22.11;47.80
46366;BME280;72328;49.570;8.722;2023-08-31T18:41:47;99492.53;;;22.14;47.96
46366;BME280;72328;49.570;8.722;2023-08-31T18:45:48;99483.22;;;22.11;48.07
46366;BME280;72328;49.570;8.722;2023-08-31T18:49:49;99478.59;;;22.13;48.21
46366;BME280;72328;49.570;8.722;2023-08-31T18:53:50;99470.09;;;22.11;48.11
46366;BME280;72328;49.570;8.722;2023-08-31T18:57:51;99481.59;;;22.10;48.18
46366;BME280;72328;49.570;8.722;2023-08-31T19:01:52;99488.00;;;22.08;48.22
46366;BME280;72328;49.570;8.722;2023-08-31T19:05:53;99495.78;;;22.01;48.56
46366;BME280;72328;49.570;8.722;2023-08-31T19:09:53;99493.72;;;21.97;48.58
46366;BME280;72328;49.570;8.722;2023-08-31T19:13:55;99495.88;;;21.93;48.78
46366;BME280;72328;49.570;8.722;2023-08-31T19:17:56;99499.88;;;21.89;48.78
46366;BME280;72328;49.570;8.722;2023-08-31T19:21:56;99492.34;;;21.86;48.81
46366;BME280;72328;49.570;8.722;2023-08-31T19:26:05;99494.34;;;21.84;49.25
46366;BME280;72328;49.570;8.722;2023-08-31T19:30:08;99498.31;;;21.80;49.11
46366;BME280;72328;49.570;8.722;2023-08-31T19:34:08;99499.22;;;21.73;49.09
46366;BME280;72328;49.570;8.722;2023-08-31T19:38:09;99510.06;;;21.70;49.52
46366;BME280;72328;49.570;8.722;2023-08-31T19:42:10;99505.00;;;21.68;49.40
46366;BME280;72328;49.570;8.722;2023-08-31T19:46:11;99504.50;;;21.65;49.56
46366;BME280;72328;49.570;8.722;2023-08-31T19:50:13;99502.84;;;21.64;49.77
46366;BME280;72328;49.570;8.722;2023-08-31T19:54:14;99498.81;;;21.61;49.57
46366;BME280;72328;49.570;8.722;2023-08-31T19:58:15;99509.03;;;21.56;49.75
46366;BME280;72328;49.570;8.722;2023-08-31T20:02:16;99505.75;;;21.54;50.16
46366;BME280;72328;49.570;8.722;2023-08-31T20:06:17;99510.19;;;21.54;49.99
46366;BME280;72328;49.570;8.722;2023-08-31T20:10:19;99513.22;;;21.43;50.35
46366;BME280;72328;49.570;8.722;2023-08-31T20:14:22;99502.53;;;21.30;50.53
46366;BME280;72328;49.570;8.722;2023-08-31T20:18:23;99503.88;;;21.26;50.55
46366;BME280;72328;49.570;8.722;2023-08-31T20:22:24;99494.56;;;21.23;50.78
46366;BME280;72328;49.570;8.722;2023-08-31T20:26:25;99499.00;;;21.23;50.61
46366;BME280;72328;49.570;8.722;2023-08-31T20:30:25;99512.44;;;21.20;50.81
46366;BME280;72328;49.570;8.722;2023-08-31T20:34:28;99509.63;;;21.21;50.76
46366;BME280;72328;49.570;8.722;2023-08-31T20:38:29;99499.16;;;21.21;51.02
46366;BME280;72328;49.570;8.722;2023-08-31T20:42:30;99501.16;;;21.19;51.02
46366;BME280;72328;49.570;8.722;2023-08-31T20:46:35;99509.50;;;21.15;51.51
46366;BME280;72328;49.570;8.722;2023-08-31T20:50:40;99509.97;;;21.18;51.39
46366;BME280;72328;49.570;8.722;2023-08-31T20:54:41;99515.41;;;21.17;51.35
46366;BME280;72328;49.570;8.722;2023-08-31T20:58:42;99514.13;;;21.13;51.52
46366;BME280;72328;49.570;8.722;2023-08-31T21:02:42;99514.28;;;21.11;51.74
46366;BME280;72328;49.570;8.722;2023-08-31T21:06:44;99516.91;;;21.11;51.92
46366;BME280;72328;49.570;8.722;2023-08-31T21:10:46;99517.53;;;21.13;51.69
46366;BME280;72328;49.570;8.722;2023-08-31T21:14:46;99517.25;;;21.08;51.94
46366;BME280;72328;49.570;8.722;2023-08-31T21:18:49;99516.50;;;21.00;51.91
46366;BME280;72328;49.570;8.722;2023-08-31T21:22:50;99514.94;;;20.91;52.19
46366;BME280;72328;49.570;8.722;2023-08-31T21:26:52;99517.72;;;20.81;52.25
46366;BME280;72328;49.570;8.722;2023-08-31T21:30:53;99512.44;;;20.67;52.37